ROMD(METAR)
05/30 16:00
METAR ROMD 300700Z AUTO VRB06KT 5000 BR BKN005 OVC007 24/23 Q1014
RMK A2994=
戻る
トップページへ戻る
IMOC Co,.Ltd.